sensor_id;sensor_type;location;lat;lon;timestamp;P1;durP1;ratioP1;P2;durP2;ratioP2
68608;SDS011;55581;46.718;7.690;2024-01-30T00:01:59;3.78;;;0.77;;
68608;SDS011;55581;46.718;7.690;2024-01-30T00:04:25;2.40;;;0.53;;
68608;SDS011;55581;46.718;7.690;2024-01-30T00:06:50;3.35;;;0.40;;
68608;SDS011;55581;46.718;7.690;2024-01-30T00:09:16;2.43;;;0.40;;
68608;SDS011;55581;46.718;7.690;2024-01-30T00:11:41;2.47;;;0.50;;
68608;SDS011;55581;46.718;7.690;2024-01-30T00:14:07;2.45;;;0.20;;
68608;SDS011;55581;46.718;7.690;2024-01-30T00:16:34;2.40;;;0.37;;
68608;SDS011;55581;46.718;7.690;2024-01-30T00:19:00;2.85;;;0.52;;
68608;SDS011;55581;46.718;7.690;2024-01-30T00:21:27;2.37;;;0.30;;
68608;SDS011;55581;46.718;7.690;2024-01-30T00:23:52;2.05;;;0.40;;
68608;SDS011;55581;46.718;7.690;2024-01-30T00:26:18;2.33;;;0.30;;
68608;SDS011;55581;46.718;7.690;2024-01-30T00:28:43;2.17;;;0.30;;
68608;SDS011;55581;46.718;7.690;2024-01-30T00:31:11;3.67;;;0.63;;
68608;SDS011;55581;46.718;7.690;2024-01-30T00:33:39;2.53;;;0.40;;
68608;SDS011;55581;46.718;7.690;2024-01-30T00:36:05;2.40;;;0.40;;
68608;SDS011;55581;46.718;7.690;2024-01-30T00:38:32;2.13;;;0.40;;
68608;SDS011;55581;46.718;7.690;2024-01-30T00:40:58;2.90;;;0.60;;
68608;SDS011;55581;46.718;7.690;2024-01-30T00:43:23;4.53;;;0.80;;
68608;SDS011;55581;46.718;7.690;2024-01-30T00:45:52;4.13;;;0.70;;
68608;SDS011;55581;46.718;7.690;2024-01-30T00:48:17;2.63;;;0.60;;
68608;SDS011;55581;46.718;7.690;2024-01-30T00:50:43;4.22;;;0.50;;
68608;SDS011;55581;46.718;7.690;2024-01-30T00:53:08;3.17;;;0.40;;
68608;SDS011;55581;46.718;7.690;2024-01-30T00:55:34;3.60;;;0.45;;
68608;SDS011;55581;46.718;7.690;2024-01-30T00:58:02;1.83;;;0.33;;
68608;SDS011;55581;46.718;7.690;2024-01-30T01:00:28;3.88;;;0.88;;
68608;SDS011;55581;46.718;7.690;2024-01-30T01:03:00;3.67;;;0.70;;
68608;SDS011;55581;46.718;7.690;2024-01-30T01:05:26;2.72;;;0.57;;
68608;SDS011;55581;46.718;7.690;2024-01-30T01:07:54;2.65;;;0.63;;
68608;SDS011;55581;46.718;7.690;2024-01-30T01:10:19;4.13;;;1.27;;
68608;SDS011;55581;46.718;7.690;2024-01-30T01:12:45;3.55;;;1.40;;
68608;SDS011;55581;46.718;7.690;2024-01-30T01:15:13;4.83;;;1.37;;
68608;SDS011;55581;46.718;7.690;2024-01-30T01:17:39;3.03;;;0.70;;
68608;SDS011;55581;46.718;7.690;2024-01-30T01:20:05;6.53;;;1.67;;
68608;SDS011;55581;46.718;7.690;2024-01-30T01:22:32;4.00;;;1.00;;
68608;SDS011;55581;46.718;7.690;2024-01-30T01:24:58;4.50;;;1.20;;
68608;SDS011;55581;46.718;7.690;2024-01-30T01:27:24;4.65;;;1.33;;
68608;SDS011;55581;46.718;7.690;2024-01-30T01:29:49;4.00;;;1.27;;
68608;SDS011;55581;46.718;7.690;2024-01-30T01:32:15;5.73;;;0.83;;
68608;SDS011;55581;46.718;7.690;2024-01-30T01:34:41;3.08;;;0.73;;
68608;SDS011;55581;46.718;7.690;2024-01-30T01:37:06;3.87;;;0.73;;
68608;SDS011;55581;46.718;7.690;2024-01-30T01:39:32;3.00;;;0.53;;
68608;SDS011;55581;46.718;7.690;2024-01-30T01:41:57;3.72;;;0.77;;
68608;SDS011;55581;46.718;7.690;2024-01-30T01:44:23;3.13;;;0.50;;
68608;SDS011;55581;46.718;7.690;2024-01-30T01:46:48;3.63;;;0.80;;
68608;SDS011;55581;46.718;7.690;2024-01-30T01:49:14;4.82;;;0.98;;
68608;SDS011;55581;46.718;7.690;2024-01-30T01:51:40;4.50;;;1.20;;
68608;SDS011;55581;46.718;7.690;2024-01-30T01:54:11;3.03;;;0.70;;
68608;SDS011;55581;46.718;7.690;2024-01-30T01:56:37;2.75;;;0.47;;
68608;SDS011;55581;46.718;7.690;2024-01-30T01:59:05;3.37;;;0.87;;
68608;SDS011;55581;46.718;7.690;2024-01-30T02:01:32;3.55;;;0.57;;
68608;SDS011;55581;46.718;7.690;2024-01-30T02:04:01;7.70;;;1.20;;
68608;SDS011;55581;46.718;7.690;2024-01-30T02:06:27;3.08;;;0.50;;
68608;SDS011;55581;46.718;7.690;2024-01-30T02:08:53;2.80;;;0.50;;
68608;SDS011;55581;46.718;7.690;2024-01-30T02:11:19;2.80;;;0.60;;
68608;SDS011;55581;46.718;7.690;2024-01-30T02:13:45;3.50;;;0.90;;
68608;SDS011;55581;46.718;7.690;2024-01-30T02:16:11;4.57;;;1.20;;
68608;SDS011;55581;46.718;7.690;2024-01-30T02:18:41;2.78;;;0.90;;
68608;SDS011;55581;46.718;7.690;2024-01-30T02:21:10;3.28;;;0.70;;
68608;SDS011;55581;46.718;7.690;2024-01-30T02:23:36;3.70;;;0.85;;
68608;SDS011;55581;46.718;7.690;2024-01-30T02:26:02;4.23;;;0.90;;
68608;SDS011;55581;46.718;7.690;2024-01-30T02:28:28;3.78;;;0.85;;
68608;SDS011;55581;46.718;7.690;2024-01-30T02:30:53;3.93;;;0.87;;
68608;SDS011;55581;46.718;7.690;2024-01-30T02:33:19;3.70;;;0.80;;
68608;SDS011;55581;46.718;7.690;2024-01-30T02:35:44;4.18;;;1.00;;
68608;SDS011;55581;46.718;7.690;2024-01-30T02:38:10;4.57;;;0.87;;
68608;SDS011;55581;46.718;7.690;2024-01-30T02:40:35;4.63;;;1.43;;
68608;SDS011;55581;46.718;7.690;2024-01-30T02:43:01;5.60;;;1.25;;
68608;SDS011;55581;46.718;7.690;2024-01-30T02:45:28;5.10;;;1.70;;
68608;SDS011;55581;46.718;7.690;2024-01-30T02:47:53;3.80;;;0.90;;
68608;SDS011;55581;46.718;7.690;2024-01-30T02:50:19;3.37;;;0.77;;
68608;SDS011;55581;46.718;7.690;2024-01-30T02:52:47;3.60;;;1.10;;
68608;SDS011;55581;46.718;7.690;2024-01-30T02:55:14;3.27;;;0.63;;
68608;SDS011;55581;46.718;7.690;2024-01-30T02:57:42;3.45;;;0.77;;
68608;SDS011;55581;46.718;7.690;2024-01-30T03:00:08;4.33;;;0.53;;
68608;SDS011;55581;46.718;7.690;2024-01-30T03:02:34;2.42;;;0.20;;
68608;SDS011;55581;46.718;7.690;2024-01-30T03:05:03;2.13;;;0.30;;
68608;SDS011;55581;46.718;7.690;2024-01-30T03:07:29;2.28;;;0.57;;
68608;SDS011;55581;46.718;7.690;2024-01-30T03:09:56;2.28;;;0.40;;
68608;SDS011;55581;46.718;7.690;2024-01-30T03:12:22;4.97;;;1.00;;
68608;SDS011;55581;46.718;7.690;2024-01-30T03:14:48;3.37;;;1.07;;
68608;SDS011;55581;46.718;7.690;2024-01-30T03:17:15;3.67;;;0.55;;
68608;SDS011;55581;46.718;7.690;2024-01-30T03:19:41;3.07;;;0.40;;
68608;SDS011;55581;46.718;7.690;2024-01-30T03:22:09;2.03;;;0.47;;
68608;SDS011;55581;46.718;7.690;2024-01-30T03:24:34;9.33;;;0.70;;
68608;SDS011;55581;46.718;7.690;2024-01-30T03:27:00;4.80;;;0.60;;
68608;SDS011;55581;46.718;7.690;2024-01-30T03:29:25;1.80;;;0.20;;
68608;SDS011;55581;46.718;7.690;2024-01-30T03:31:50;5.30;;;1.13;;
68608;SDS011;55581;46.718;7.690;2024-01-30T03:34:16;4.37;;;0.70;;
68608;SDS011;55581;46.718;7.690;2024-01-30T03:36:41;3.17;;;0.60;;
68608;SDS011;55581;46.718;7.690;2024-01-30T03:39:07;3.85;;;0.70;;
68608;SDS011;55581;46.718;7.690;2024-01-30T03:41:32;3.43;;;0.73;;
68608;SDS011;55581;46.718;7.690;2024-01-30T03:43:58;3.63;;;0.60;;
68608;SDS011;55581;46.718;7.690;2024-01-30T03:46:23;3.10;;;0.80;;
68608;SDS011;55581;46.718;7.690;2024-01-30T03:48:49;4.07;;;0.83;;
68608;SDS011;55581;46.718;7.690;2024-01-30T03:51:17;4.40;;;1.20;;
68608;SDS011;55581;46.718;7.690;2024-01-30T03:53:42;4.13;;;1.07;;
68608;SDS011;55581;46.718;7.690;2024-01-30T03:56:08;4.10;;;0.95;;
68608;SDS011;55581;46.718;7.690;2024-01-30T03:58:34;4.05;;;0.90;;
68608;SDS011;55581;46.718;7.690;2024-01-30T04:01:00;3.37;;;1.10;;
68608;SDS011;55581;46.718;7.690;2024-01-30T04:03:25;3.35;;;0.93;;
68608;SDS011;55581;46.718;7.690;2024-01-30T04:05:54;4.37;;;0.80;;
68608;SDS011;55581;46.718;7.690;2024-01-30T04:08:19;2.72;;;0.50;;
68608;SDS011;55581;46.718;7.690;2024-01-30T04:10:46;3.00;;;0.65;;
68608;SDS011;55581;46.718;7.690;2024-01-30T04:13:11;2.67;;;0.60;;
68608;SDS011;55581;46.718;7.690;2024-01-30T04:15:37;3.45;;;1.10;;
68608;SDS011;55581;46.718;7.690;2024-01-30T04:18:02;3.43;;;0.83;;
68608;SDS011;55581;46.718;7.690;2024-01-30T04:20:29;2.15;;;0.40;;
68608;SDS011;55581;46.718;7.690;2024-01-30T04:22:54;2.40;;;0.30;;
68608;SDS011;55581;46.718;7.690;2024-01-30T04:25:19;1.38;;;0.30;;
68608;SDS011;55581;46.718;7.690;2024-01-30T04:27:45;2.07;;;0.30;;
68608;SDS011;55581;46.718;7.690;2024-01-30T04:30:10;3.93;;;0.63;;
68608;SDS011;55581;46.718;7.690;2024-01-30T04:32:36;3.25;;;0.70;;
68608;SDS011;55581;46.718;7.690;2024-01-30T04:35:07;4.60;;;0.97;;
68608;SDS011;55581;46.718;7.690;2024-01-30T04:37:32;4.65;;;0.88;;
68608;SDS011;55581;46.718;7.690;2024-01-30T04:39:58;3.07;;;0.53;;
68608;SDS011;55581;46.718;7.690;2024-01-30T04:42:23;4.35;;;0.73;;
68608;SDS011;55581;46.718;7.690;2024-01-30T04:44:49;2.60;;;0.50;;
68608;SDS011;55581;46.718;7.690;2024-01-30T04:47:15;2.80;;;0.50;;
68608;SDS011;55581;46.718;7.690;2024-01-30T04:49:40;2.40;;;0.30;;
68608;SDS011;55581;46.718;7.690;2024-01-30T04:52:06;2.80;;;0.33;;
68608;SDS011;55581;46.718;7.690;2024-01-30T04:54:32;2.63;;;0.52;;
68608;SDS011;55581;46.718;7.690;2024-01-30T04:57:01;3.10;;;0.70;;
68608;SDS011;55581;46.718;7.690;2024-01-30T04:59:26;4.40;;;0.77;;
68608;SDS011;55581;46.718;7.690;2024-01-30T05:01:52;4.53;;;0.83;;
68608;SDS011;55581;46.718;7.690;2024-01-30T05:04:17;2.93;;;0.60;;
68608;SDS011;55581;46.718;7.690;2024-01-30T05:06:43;2.92;;;0.68;;
68608;SDS011;55581;46.718;7.690;2024-01-30T05:09:09;3.20;;;0.70;;
68608;SDS011;55581;46.718;7.690;2024-01-30T05:11:37;3.70;;;0.97;;
68608;SDS011;55581;46.718;7.690;2024-01-30T05:14:04;3.97;;;0.70;;
68608;SDS011;55581;46.718;7.690;2024-01-30T05:16:33;5.85;;;1.20;;
68608;SDS011;55581;46.718;7.690;2024-01-30T05:18:59;4.57;;;1.23;;
68608;SDS011;55581;46.718;7.690;2024-01-30T05:21:24;4.57;;;1.40;;
68608;SDS011;55581;46.718;7.690;2024-01-30T05:23:50;5.83;;;1.60;;
68608;SDS011;55581;46.718;7.690;2024-01-30T05:26:16;5.23;;;1.80;;
68608;SDS011;55581;46.718;7.690;2024-01-30T05:28:41;5.30;;;1.40;;
68608;SDS011;55581;46.718;7.690;2024-01-30T05:31:09;5.20;;;1.10;;
68608;SDS011;55581;46.718;7.690;2024-01-30T05:33:35;3.97;;;1.20;;
68608;SDS011;55581;46.718;7.690;2024-01-30T05:36:00;4.97;;;1.40;;
68608;SDS011;55581;46.718;7.690;2024-01-30T05:38:26;3.83;;;1.43;;
68608;SDS011;55581;46.718;7.690;2024-01-30T05:40:52;4.50;;;1.45;;
68608;SDS011;55581;46.718;7.690;2024-01-30T05:43:17;5.90;;;1.37;;
68608;SDS011;55581;46.718;7.690;2024-01-30T05:45:45;3.65;;;1.33;;
68608;SDS011;55581;46.718;7.690;2024-01-30T05:48:11;4.23;;;1.00;;
68608;SDS011;55581;46.718;7.690;2024-01-30T05:50:36;4.78;;;1.60;;
68608;SDS011;55581;46.718;7.690;2024-01-30T05:53:01;7.30;;;1.20;;
68608;SDS011;55581;46.718;7.690;2024-01-30T05:55:27;3.10;;;0.90;;
68608;SDS011;55581;46.718;7.690;2024-01-30T05:57:55;3.53;;;0.80;;
68608;SDS011;55581;46.718;7.690;2024-01-30T06:00:21;3.20;;;0.90;;
68608;SDS011;55581;46.718;7.690;2024-01-30T06:02:48;4.38;;;1.10;;
68608;SDS011;55581;46.718;7.690;2024-01-30T06:05:14;4.33;;;0.73;;
68608;SDS011;55581;46.718;7.690;2024-01-30T06:07:39;3.55;;;0.65;;
68608;SDS011;55581;46.718;7.690;2024-01-30T06:10:05;3.37;;;0.43;;
68608;SDS011;55581;46.718;7.690;2024-01-30T06:12:32;4.60;;;0.65;;
68608;SDS011;55581;46.718;7.690;2024-01-30T06:14:57;2.33;;;0.30;;
68608;SDS011;55581;46.718;7.690;2024-01-30T06:17:23;2.20;;;0.35;;
68608;SDS011;55581;46.718;7.690;2024-01-30T06:19:49;2.03;;;0.40;;
68608;SDS011;55581;46.718;7.690;2024-01-30T06:22:15;1.88;;;0.35;;
68608;SDS011;55581;46.718;7.690;2024-01-30T06:24:41;1.95;;;0.22;;
68608;SDS011;55581;46.718;7.690;2024-01-30T06:27:06;2.87;;;0.40;;
68608;SDS011;55581;46.718;7.690;2024-01-30T06:29:32;3.60;;;0.70;;
68608;SDS011;55581;46.718;7.690;2024-01-30T06:31:57;3.60;;;0.70;;
68608;SDS011;55581;46.718;7.690;2024-01-30T06:34:23;2.10;;;0.20;;
68608;SDS011;55581;46.718;7.690;2024-01-30T06:36:48;4.00;;;0.60;;
68608;SDS011;55581;46.718;7.690;2024-01-30T06:39:14;5.07;;;0.90;;
68608;SDS011;55581;46.718;7.690;2024-01-30T06:41:39;5.97;;;0.60;;
68608;SDS011;55581;46.718;7.690;2024-01-30T06:44:04;5.43;;;0.50;;
68608;SDS011;55581;46.718;7.690;2024-01-30T06:46:31;2.50;;;0.40;;
68608;SDS011;55581;46.718;7.690;2024-01-30T06:49:00;5.20;;;1.13;;
68608;SDS011;55581;46.718;7.690;2024-01-30T06:51:26;3.60;;;0.70;;
68608;SDS011;55581;46.718;7.690;2024-01-30T06:53:51;5.83;;;1.57;;
68608;SDS011;55581;46.718;7.690;2024-01-30T06:56:17;4.47;;;1.20;;
68608;SDS011;55581;46.718;7.690;2024-01-30T06:58:46;4.07;;;0.90;;
68608;SDS011;55581;46.718;7.690;2024-01-30T07:01:14;4.50;;;1.13;;
68608;SDS011;55581;46.718;7.690;2024-01-30T07:03:39;3.35;;;0.80;;
68608;SDS011;55581;46.718;7.690;2024-01-30T07:06:05;3.93;;;0.90;;
68608;SDS011;55581;46.718;7.690;2024-01-30T07:08:30;4.30;;;0.50;;
68608;SDS011;55581;46.718;7.690;2024-01-30T07:10:56;5.10;;;0.90;;
68608;SDS011;55581;46.718;7.690;2024-01-30T07:13:21;4.13;;;0.90;;
68608;SDS011;55581;46.718;7.690;2024-01-30T07:15:47;3.47;;;0.77;;
68608;SDS011;55581;46.718;7.690;2024-01-30T07:18:12;3.53;;;0.77;;
68608;SDS011;55581;46.718;7.690;2024-01-30T07:20:38;5.10;;;1.27;;
68608;SDS011;55581;46.718;7.690;2024-01-30T07:23:11;4.43;;;1.15;;
68608;SDS011;55581;46.718;7.690;2024-01-30T07:25:41;4.75;;;0.77;;
68608;SDS011;55581;46.718;7.690;2024-01-30T07:28:07;9.60;;;1.60;;
68608;SDS011;55581;46.718;7.690;2024-01-30T07:30:36;4.97;;;1.10;;
68608;SDS011;55581;46.718;7.690;2024-01-30T07:33:01;6.85;;;1.10;;
68608;SDS011;55581;46.718;7.690;2024-01-30T07:35:27;5.70;;;1.63;;
68608;SDS011;55581;46.718;7.690;2024-01-30T07:37:52;4.50;;;2.00;;
68608;SDS011;55581;46.718;7.690;2024-01-30T07:40:18;8.13;;;1.67;;
68608;SDS011;55581;46.718;7.690;2024-01-30T07:42:45;6.40;;;1.90;;
68608;SDS011;55581;46.718;7.690;2024-01-30T07:45:11;5.70;;;2.07;;
68608;SDS011;55581;46.718;7.690;2024-01-30T07:47:37;6.97;;;1.47;;
68608;SDS011;55581;46.718;7.690;2024-01-30T07:50:04;6.57;;;1.58;;
68608;SDS011;55581;46.718;7.690;2024-01-30T07:52:30;5.07;;;1.75;;
68608;SDS011;55581;46.718;7.690;2024-01-30T07:54:56;3.97;;;1.10;;
68608;SDS011;55581;46.718;7.690;2024-01-30T07:57:26;5.47;;;1.08;;
68608;SDS011;55581;46.718;7.690;2024-01-30T07:59:51;4.55;;;1.27;;
68608;SDS011;55581;46.718;7.690;2024-01-30T08:02:17;3.93;;;0.87;;
68608;SDS011;55581;46.718;7.690;2024-01-30T08:04:42;4.23;;;1.10;;
68608;SDS011;55581;46.718;7.690;2024-01-30T08:07:08;5.20;;;1.73;;
68608;SDS011;55581;46.718;7.690;2024-01-30T08:09:33;4.50;;;1.73;;
68608;SDS011;55581;46.718;7.690;2024-01-30T08:11:59;4.83;;;1.77;;
68608;SDS011;55581;46.718;7.690;2024-01-30T08:14:24;5.67;;;1.93;;
68608;SDS011;55581;46.718;7.690;2024-01-30T08:16:53;4.55;;;1.60;;
68608;SDS011;55581;46.718;7.690;2024-01-30T08:19:21;4.40;;;1.70;;
68608;SDS011;55581;46.718;7.690;2024-01-30T08:21:46;4.13;;;1.40;;
68608;SDS011;55581;46.718;7.690;2024-01-30T08:24:12;4.90;;;1.70;;
68608;SDS011;55581;46.718;7.690;2024-01-30T08:26:37;6.50;;;1.52;;
68608;SDS011;55581;46.718;7.690;2024-01-30T08:29:03;6.97;;;1.80;;
68608;SDS011;55581;46.718;7.690;2024-01-30T08:31:29;5.82;;;1.60;;
68608;SDS011;55581;46.718;7.690;2024-01-30T08:33:56;5.07;;;1.73;;
68608;SDS011;55581;46.718;7.690;2024-01-30T08:36:22;6.68;;;1.58;;
68608;SDS011;55581;46.718;7.690;2024-01-30T08:38:47;4.93;;;1.43;;
68608;SDS011;55581;46.718;7.690;2024-01-30T08:41:13;4.67;;;1.50;;
68608;SDS011;55581;46.718;7.690;2024-01-30T08:43:38;4.70;;;1.20;;
68608;SDS011;55581;46.718;7.690;2024-01-30T08:46:04;4.55;;;1.45;;
68608;SDS011;55581;46.718;7.690;2024-01-30T08:48:31;4.53;;;1.87;;
68608;SDS011;55581;46.718;7.690;2024-01-30T08:50:57;4.72;;;1.88;;
68608;SDS011;55581;46.718;7.690;2024-01-30T08:53:22;5.20;;;1.53;;
68608;SDS011;55581;46.718;7.690;2024-01-30T08:55:48;5.63;;;1.27;;
68608;SDS011;55581;46.718;7.690;2024-01-30T08:58:13;4.63;;;1.70;;
68608;SDS011;55581;46.718;7.690;2024-01-30T09:00:38;6.23;;;1.83;;
68608;SDS011;55581;46.718;7.690;2024-01-30T09:03:05;5.87;;;1.60;;
68608;SDS011;55581;46.718;7.690;2024-01-30T09:05:31;4.47;;;1.48;;
68608;SDS011;55581;46.718;7.690;2024-01-30T09:07:59;6.10;;;1.53;;
68608;SDS011;55581;46.718;7.690;2024-01-30T09:10:24;5.85;;;1.50;;
68608;SDS011;55581;46.718;7.690;2024-01-30T09:12:49;3.93;;;1.20;;
68608;SDS011;55581;46.718;7.690;2024-01-30T09:15:15;4.90;;;1.97;;
68608;SDS011;55581;46.718;7.690;2024-01-30T09:17:40;5.03;;;1.50;;
68608;SDS011;55581;46.718;7.690;2024-01-30T09:20:06;5.53;;;1.70;;
68608;SDS011;55581;46.718;7.690;2024-01-30T09:22:32;4.40;;;1.37;;
68608;SDS011;55581;46.718;7.690;2024-01-30T09:24:57;4.17;;;1.23;;
68608;SDS011;55581;46.718;7.690;2024-01-30T09:27:23;5.43;;;1.63;;
68608;SDS011;55581;46.718;7.690;2024-01-30T09:29:48;5.63;;;1.60;;
68608;SDS011;55581;46.718;7.690;2024-01-30T09:32:16;4.32;;;1.10;;
68608;SDS011;55581;46.718;7.690;2024-01-30T09:34:43;4.55;;;1.40;;
68608;SDS011;55581;46.718;7.690;2024-01-30T09:37:09;4.67;;;1.70;;
68608;SDS011;55581;46.718;7.690;2024-01-30T09:39:34;4.27;;;1.27;;
68608;SDS011;55581;46.718;7.690;2024-01-30T09:45:02;4.60;;;1.20;;
68608;SDS011;55581;46.718;7.690;2024-01-30T09:47:31;4.10;;;1.10;;
68608;SDS011;55581;46.718;7.690;2024-01-30T09:49:57;7.07;;;1.40;;
68608;SDS011;55581;46.718;7.690;2024-01-30T09:52:26;4.53;;;1.42;;
68608;SDS011;55581;46.718;7.690;2024-01-30T09:54:53;4.85;;;1.48;;
68608;SDS011;55581;46.718;7.690;2024-01-30T09:57:22;7.68;;;1.50;;
68608;SDS011;55581;46.718;7.690;2024-01-30T09:59:47;5.70;;;1.77;;
68608;SDS011;55581;46.718;7.690;2024-01-30T10:02:13;10.83;;;4.30;;
68608;SDS011;55581;46.718;7.690;2024-01-30T10:04:38;13.33;;;5.03;;
68608;SDS011;55581;46.718;7.690;2024-01-30T10:07:04;5.90;;;1.50;;
68608;SDS011;55581;46.718;7.690;2024-01-30T10:09:31;2.40;;;0.40;;
68608;SDS011;55581;46.718;7.690;2024-01-30T10:11:58;8.80;;;2.30;;
68608;SDS011;55581;46.718;7.690;2024-01-30T10:14:24;4.50;;;1.20;;
68608;SDS011;55581;46.718;7.690;2024-01-30T10:16:50;5.53;;;0.85;;
68608;SDS011;55581;46.718;7.690;2024-01-30T10:19:18;4.00;;;1.40;;
68608;SDS011;55581;46.718;7.690;2024-01-30T10:21:43;4.47;;;1.30;;
68608;SDS011;55581;46.718;7.690;2024-01-30T10:24:09;3.77;;;1.03;;
68608;SDS011;55581;46.718;7.690;2024-01-30T10:26:38;4.72;;;1.15;;
68608;SDS011;55581;46.718;7.690;2024-01-30T10:29:03;3.70;;;0.95;;
68608;SDS011;55581;46.718;7.690;2024-01-30T10:31:29;3.90;;;1.27;;
68608;SDS011;55581;46.718;7.690;2024-01-30T10:33:57;4.03;;;1.30;;
68608;SDS011;55581;46.718;7.690;2024-01-30T10:36:24;3.77;;;1.10;;
68608;SDS011;55581;46.718;7.690;2024-01-30T10:38:54;3.40;;;0.98;;
68608;SDS011;55581;46.718;7.690;2024-01-30T10:41:26;5.13;;;1.55;;
68608;SDS011;55581;46.718;7.690;2024-01-30T10:44:02;4.13;;;1.25;;
68608;SDS011;55581;46.718;7.690;2024-01-30T10:46:33;6.68;;;1.27;;
68608;SDS011;55581;46.718;7.690;2024-01-30T10:49:00;6.27;;;1.47;;
68608;SDS011;55581;46.718;7.690;2024-01-30T10:51:26;4.80;;;1.60;;
68608;SDS011;55581;46.718;7.690;2024-01-30T10:53:52;7.95;;;2.17;;
68608;SDS011;55581;46.718;7.690;2024-01-30T10:56:21;5.40;;;1.80;;
68608;SDS011;55581;46.718;7.690;2024-01-30T10:58:51;5.40;;;1.77;;
68608;SDS011;55581;46.718;7.690;2024-01-30T11:01:23;5.50;;;1.67;;
68608;SDS011;55581;46.718;7.690;2024-01-30T11:03:50;6.75;;;2.22;;
68608;SDS011;55581;46.718;7.690;2024-01-30T11:06:22;7.53;;;4.00;;
68608;SDS011;55581;46.718;7.690;2024-01-30T11:09:02;6.93;;;2.60;;
68608;SDS011;55581;46.718;7.690;2024-01-30T11:11:32;10.57;;;2.63;;
68608;SDS011;55581;46.718;7.690;2024-01-30T11:14:12;13.27;;;7.20;;
68608;SDS011;55581;46.718;7.690;2024-01-30T11:16:38;26.60;;;10.32;;
68608;SDS011;55581;46.718;7.690;2024-01-30T11:19:05;12.50;;;5.78;;
68608;SDS011;55581;46.718;7.690;2024-01-30T11:21:43;8.23;;;4.43;;
68608;SDS011;55581;46.718;7.690;2024-01-30T11:24:08;7.47;;;2.38;;
68608;SDS011;55581;46.718;7.690;2024-01-30T11:26:34;5.30;;;2.30;;
68608;SDS011;55581;46.718;7.690;2024-01-30T11:29:03;6.65;;;1.90;;
68608;SDS011;55581;46.718;7.690;2024-01-30T11:31:29;5.75;;;1.60;;
68608;SDS011;55581;46.718;7.690;2024-01-30T11:33:55;7.83;;;1.70;;
68608;SDS011;55581;46.718;7.690;2024-01-30T11:36:25;5.55;;;2.08;;
68608;SDS011;55581;46.718;7.690;2024-01-30T11:38:54;4.95;;;1.38;;
68608;SDS011;55581;46.718;7.690;2024-01-30T11:41:19;4.47;;;1.30;;
68608;SDS011;55581;46.718;7.690;2024-01-30T11:43:52;6.78;;;1.52;;
68608;SDS011;55581;46.718;7.690;2024-01-30T11:46:18;6.90;;;2.08;;
68608;SDS011;55581;46.718;7.690;2024-01-30T11:48:43;14.53;;;5.67;;
68608;SDS011;55581;46.718;7.690;2024-01-30T11:51:09;7.78;;;2.70;;
68608;SDS011;55581;46.718;7.690;2024-01-30T11:53:34;7.53;;;3.60;;
68608;SDS011;55581;46.718;7.690;2024-01-30T11:56:00;14.23;;;3.10;;
68608;SDS011;55581;46.718;7.690;2024-01-30T11:58:25;6.60;;;2.20;;
68608;SDS011;55581;46.718;7.690;2024-01-30T12:00:57;5.57;;;2.60;;
68608;SDS011;55581;46.718;7.690;2024-01-30T12:03:25;10.25;;;3.40;;
68608;SDS011;55581;46.718;7.690;2024-01-30T12:05:57;6.77;;;2.80;;
68608;SDS011;55581;46.718;7.690;2024-01-30T12:08:27;5.13;;;2.40;;
68608;SDS011;55581;46.718;7.690;2024-01-30T12:10:56;9.63;;;3.40;;
68608;SDS011;55581;46.718;7.690;2024-01-30T12:13:23;6.30;;;2.37;;
68608;SDS011;55581;46.718;7.690;2024-01-30T12:15:48;19.02;;;8.63;;
68608;SDS011;55581;46.718;7.690;2024-01-30T12:18:18;16.43;;;6.87;;
68608;SDS011;55581;46.718;7.690;2024-01-30T12:20:43;7.47;;;2.80;;
68608;SDS011;55581;46.718;7.690;2024-01-30T12:23:09;6.93;;;2.60;;
68608;SDS011;55581;46.718;7.690;2024-01-30T12:25:37;9.85;;;2.80;;
68608;SDS011;55581;46.718;7.690;2024-01-30T12:28:03;5.32;;;1.80;;
68608;SDS011;55581;46.718;7.690;2024-01-30T12:30:29;3.80;;;1.27;;
68608;SDS011;55581;46.718;7.690;2024-01-30T12:32:54;4.87;;;1.77;;
68608;SDS011;55581;46.718;7.690;2024-01-30T12:35:20;7.05;;;1.67;;
68608;SDS011;55581;46.718;7.690;2024-01-30T12:37:47;5.83;;;1.80;;
68608;SDS011;55581;46.718;7.690;2024-01-30T12:40:13;5.38;;;2.10;;
68608;SDS011;55581;46.718;7.690;2024-01-30T12:42:43;4.55;;;2.10;;
68608;SDS011;55581;46.718;7.690;2024-01-30T12:45:13;5.43;;;2.08;;
68608;SDS011;55581;46.718;7.690;2024-01-30T12:47:47;5.38;;;2.08;;
68608;SDS011;55581;46.718;7.690;2024-01-30T12:50:13;4.63;;;2.20;;
68608;SDS011;55581;46.718;7.690;2024-01-30T12:52:42;5.85;;;2.15;;
68608;SDS011;55581;46.718;7.690;2024-01-30T12:55:10;5.32;;;2.05;;
68608;SDS011;55581;46.718;7.690;2024-01-30T12:57:36;5.53;;;2.23;;
68608;SDS011;55581;46.718;7.690;2024-01-30T13:00:01;4.63;;;1.65;;
68608;SDS011;55581;46.718;7.690;2024-01-30T13:02:27;5.27;;;2.23;;
68608;SDS011;55581;46.718;7.690;2024-01-30T13:04:59;6.68;;;2.10;;
68608;SDS011;55581;46.718;7.690;2024-01-30T13:07:25;5.85;;;2.30;;
68608;SDS011;55581;46.718;7.690;2024-01-30T13:09:50;6.37;;;2.17;;
68608;SDS011;55581;46.718;7.690;2024-01-30T13:12:16;17.70;;;2.63;;
68608;SDS011;55581;46.718;7.690;2024-01-30T13:14:44;4.43;;;1.92;;
68608;SDS011;55581;46.718;7.690;2024-01-30T13:17:09;5.20;;;2.20;;
68608;SDS011;55581;46.718;7.690;2024-01-30T13:19:34;6.57;;;2.30;;
68608;SDS011;55581;46.718;7.690;2024-01-30T13:22:00;4.20;;;2.00;;
68608;SDS011;55581;46.718;7.690;2024-01-30T13:24:25;4.25;;;1.75;;
68608;SDS011;55581;46.718;7.690;2024-01-30T13:26:51;6.00;;;2.70;;
68608;SDS011;55581;46.718;7.690;2024-01-30T13:29:18;8.35;;;2.60;;
68608;SDS011;55581;46.718;7.690;2024-01-30T13:31:44;6.45;;;2.58;;
68608;SDS011;55581;46.718;7.690;2024-01-30T13:34:11;6.63;;;2.20;;
68608;SDS011;55581;46.718;7.690;2024-01-30T13:36:37;8.13;;;2.00;;
68608;SDS011;55581;46.718;7.690;2024-01-30T13:39:03;5.03;;;1.77;;
68608;SDS011;55581;46.718;7.690;2024-01-30T13:41:32;5.72;;;2.33;;
68608;SDS011;55581;46.718;7.690;2024-01-30T13:43:58;7.23;;;3.20;;
68608;SDS011;55581;46.718;7.690;2024-01-30T13:46:23;5.37;;;2.83;;
68608;SDS011;55581;46.718;7.690;2024-01-30T13:48:51;5.25;;;2.58;;
68608;SDS011;55581;46.718;7.690;2024-01-30T13:51:17;6.13;;;2.55;;
68608;SDS011;55581;46.718;7.690;2024-01-30T13:53:45;6.93;;;2.35;;
68608;SDS011;55581;46.718;7.690;2024-01-30T13:56:10;5.07;;;2.40;;
68608;SDS011;55581;46.718;7.690;2024-01-30T13:58:36;4.77;;;2.33;;
68608;SDS011;55581;46.718;7.690;2024-01-30T14:01:02;7.20;;;3.13;;
68608;SDS011;55581;46.718;7.690;2024-01-30T14:03:27;5.23;;;2.50;;
68608;SDS011;55581;46.718;7.690;2024-01-30T14:05:53;6.10;;;3.08;;
68608;SDS011;55581;46.718;7.690;2024-01-30T14:08:19;5.97;;;3.03;;
68608;SDS011;55581;46.718;7.690;2024-01-30T14:10:46;5.30;;;2.60;;
68608;SDS011;55581;46.718;7.690;2024-01-30T14:13:12;6.68;;;3.15;;
68608;SDS011;55581;46.718;7.690;2024-01-30T14:15:37;6.57;;;2.90;;
68608;SDS011;55581;46.718;7.690;2024-01-30T14:18:03;7.05;;;3.05;;
68608;SDS011;55581;46.718;7.690;2024-01-30T14:20:30;6.30;;;2.73;;
68608;SDS011;55581;46.718;7.690;2024-01-30T14:22:56;7.22;;;2.70;;
68608;SDS011;55581;46.718;7.690;2024-01-30T14:25:21;5.87;;;3.00;;
68608;SDS011;55581;46.718;7.690;2024-01-30T14:27:49;5.45;;;2.60;;
68608;SDS011;55581;46.718;7.690;2024-01-30T14:30:15;5.10;;;2.40;;
68608;SDS011;55581;46.718;7.690;2024-01-30T14:32:42;9.68;;;2.30;;
68608;SDS011;55581;46.718;7.690;2024-01-30T14:35:09;4.80;;;2.03;;
68608;SDS011;55581;46.718;7.690;2024-01-30T14:37:35;5.68;;;1.98;;
68608;SDS011;55581;46.718;7.690;2024-01-30T14:40:01;6.30;;;2.03;;
68608;SDS011;55581;46.718;7.690;2024-01-30T14:42:26;6.45;;;1.98;;
68608;SDS011;55581;46.718;7.690;2024-01-30T14:44:56;5.63;;;1.90;;
68608;SDS011;55581;46.718;7.690;2024-01-30T14:47:24;7.93;;;2.60;;